Time;durP1;ratioP1;P1;durP2;ratioP2;P2;SDS_P1;SDS_P2;PMS_P1;PMS_P2;Temp;Humidity;BMP_temperature;BMP_pressure;BME280_temperature;BME280_humidity;BME280_pressure;Samples;Min_cycle;Max_cycle;Signal;HPM_P1;HPM_P2
2022/07/25 00:00:27;;;;;;;7.70;2.50;;;;;;;21.04;51.07;100653.09;6097294;28;20020;-65
2022/07/25 00:03:22;;;;;;;5.53;2.72;;;;;;;20.91;51.40;100632.44;6097264;28;20033;-66
2022/07/25 00:06:17;;;;;;;6.27;2.30;;;;;;;20.87;51.59;100631.22;6097798;28;20483;-64
2022/07/25 00:09:13;;;;;;;10.80;2.20;;;;;;;20.81;51.90;100637.47;6097002;28;20076;-64
2022/07/25 00:12:08;;;;;;;5.70;2.33;;;;;;;20.72;52.05;100620.69;6096146;28;20031;-64
2022/07/25 00:15:05;;;;;;;5.10;2.47;;;;;;;20.69;52.14;100617.59;6097135;28;20044;-64
2022/07/25 00:18:00;;;;;;;5.28;2.25;;;;;;;20.68;52.24;100615.97;6096903;28;20511;-66
2022/07/25 00:20:55;;;;;;;6.47;2.33;;;;;;;20.66;52.54;100626.94;6096654;28;20037;-64
2022/07/25 00:23:50;;;;;;;5.77;2.43;;;;;;;20.60;52.52;100618.91;6096819;28;20028;-65
2022/07/25 00:26:46;;;;;;;7.87;2.60;;;;;;;20.46;52.68;100617.28;6097548;28;20310;-65
2022/07/25 00:29:41;;;;;;;5.10;2.50;;;;;;;20.36;53.11;100606.94;6097086;28;20041;-64
2022/07/25 00:32:36;;;;;;;4.93;2.40;;;;;;;20.33;53.21;100611.94;6096265;28;20036;-64
2022/07/25 00:35:32;;;;;;;4.22;2.38;;;;;;;20.32;53.20;100604.91;6097463;28;20043;-65
2022/07/25 00:38:27;;;;;;;5.60;2.47;;;;;;;20.39;53.23;100611.06;6096842;28;20036;-66
2022/07/25 00:41:22;;;;;;;4.80;2.57;;;;;;;20.36;53.17;100617.72;6096462;28;20029;-64
2022/07/25 00:44:25;;;;;;;4.20;2.80;;;;;;;20.32;53.28;100615.66;6097048;28;20451;-67
2022/07/25 00:47:21;;;;;;;3.67;2.15;;;;;;;20.23;53.65;100606.97;6096801;28;20299;-64
2022/07/25 00:50:16;;;;;;;4.95;2.05;;;;;;;20.20;53.56;100604.69;6100465;28;20028;-65
2022/07/25 00:53:11;;;;;;;5.43;2.30;;;;;;;20.23;53.55;100606.13;6101632;28;20104;-65
2022/07/25 00:56:07;;;;;;;4.07;2.33;;;;;;;20.16;53.53;100600.78;6102014;28;20032;-65
2022/07/25 00:59:03;;;;;;;6.10;2.50;;;;;;;20.22;53.49;100599.09;6101558;28;20027;-64
2022/07/25 01:01:58;;;;;;;6.90;2.30;;;;;;;20.09;53.75;100595.38;6100825;28;20035;-65
2022/07/25 01:04:55;;;;;;;6.55;2.20;;;;;;;20.06;53.58;100576.97;6101279;28;20031;-65
2022/07/25 01:07:51;;;;;;;6.57;2.65;;;;;;;20.05;53.95;100583.41;6100047;28;20036;-66
2022/07/25 01:10:47;;;;;;;7.03;2.72;;;;;;;19.95;54.01;100574.91;6102521;28;20044;-64
2022/07/25 01:13:43;;;;;;;7.35;2.40;;;;;;;19.97;54.14;100578.25;6101591;28;20334;-65
2022/07/25 01:16:40;;;;;;;5.30;2.65;;;;;;;19.97;53.90;100577.41;6101068;28;20032;-66
2022/07/25 01:19:35;;;;;;;4.75;2.22;;;;;;;19.86;54.21;100573.50;6101706;28;20071;-65
2022/07/25 01:22:30;;;;;;;7.40;2.50;;;;;;;19.85;54.53;100579.91;6100531;28;20024;-64
2022/07/25 01:25:26;;;;;;;4.47;2.60;;;;;;;19.87;54.31;100580.50;6100318;28;20028;-64
2022/07/25 01:28:21;;;;;;;9.88;2.60;;;;;;;19.78;54.68;100571.03;6101444;28;20483;-65
2022/07/25 01:31:16;;;;;;;3.72;2.20;;;;;;;19.80;54.27;100563.56;6099948;28;20079;-65
2022/07/25 01:34:12;;;;;;;6.03;2.30;;;;;;;19.71;54.63;100559.44;6100830;28;20033;-64
2022/07/25 01:37:07;;;;;;;4.57;2.33;;;;;;;19.56;54.53;100545.38;6100556;28;20297;-65
2022/07/25 01:40:03;;;;;;;4.30;2.50;;;;;;;19.73;54.86;100573.50;6100033;28;20028;-64
2022/07/25 01:43:00;;;;;;;5.75;2.67;;;;;;;19.58;54.90;100557.59;6100418;28;20033;-65
2022/07/25 01:45:55;;;;;;;5.68;2.38;;;;;;;19.50;55.27;100559.66;6100787;28;20171;-64
2022/07/25 01:48:50;;;;;;;5.90;2.33;;;;;;;19.46;55.31;100561.09;6100390;28;20032;-65
2022/07/25 01:51:46;;;;;;;6.10;2.87;;;;;;;19.49;55.37;100566.06;6099496;28;20091;-65
2022/07/25 01:54:41;;;;;;;6.87;2.57;;;;;;;19.46;55.42;100553.03;6100909;28;20029;-65
2022/07/25 01:57:36;;;;;;;6.23;2.50;;;;;;;19.37;55.38;100543.50;6100089;28;20025;-64
2022/07/25 02:00:32;;;;;;;5.68;2.25;;;;;;;19.45;55.06;100556.78;6099880;28;20584;-64
2022/07/25 02:03:30;;;;;;;5.20;2.60;;;;;;;19.43;55.23;100548.09;6100363;28;20056;-64
2022/07/25 02:06:25;;;;;;;3.72;2.10;;;;;;;19.47;55.42;100549.31;6099973;28;20025;-65
2022/07/25 02:09:21;;;;;;;6.27;2.77;;;;;;;19.42;55.41;100554.50;6099716;28;20043;-65
2022/07/25 02:12:17;;;;;;;8.18;2.35;;;;;;;19.37;55.30;100538.94;6099366;28;20521;-64
2022/07/25 02:15:12;;;;;;;10.40;2.63;;;;;;;19.34;55.15;100536.66;6099742;28;20033;-64
2022/07/25 02:18:07;;;;;;;5.13;2.50;;;;;;;19.30;55.31;100529.19;6097212;28;20037;-64
2022/07/25 02:21:06;;;;;;;5.13;2.30;;;;;;;19.24;55.62;100528.16;6099392;28;20032;-64
2022/07/25 02:24:02;;;;;;;8.00;2.60;;;;;;;19.33;55.45;100531.47;6099378;28;20460;-66
2022/07/25 02:26:57;;;;;;;5.47;2.65;;;;;;;19.33;55.33;100528.78;6099586;28;20106;-65
2022/07/25 02:29:52;;;;;;;5.00;2.53;;;;;;;19.38;55.07;100518.25;6099833;28;20045;-67
2022/07/25 02:32:48;;;;;;;4.57;2.60;;;;;;;19.37;55.13;100516.59;6099180;28;20452;-63
2022/07/25 02:35:43;;;;;;;6.53;2.60;;;;;;;19.34;54.70;100493.63;6098196;28;20029;-63
2022/07/25 02:38:38;;;;;;;9.53;2.33;;;;;;;19.46;54.70;100502.75;6098928;28;20112;-63
2022/07/25 02:41:33;;;;;;;6.33;2.43;;;;;;;19.45;54.30;100490.34;6098478;28;20075;-66
2022/07/25 02:44:29;;;;;;;4.70;2.47;;;;;;;19.53;54.08;100495.50;6099855;28;20380;-65
2022/07/25 02:47:24;;;;;;;3.63;2.10;;;;;;;19.50;54.06;100492.41;6099385;28;20372;-63
2022/07/25 02:50:19;;;;;;;3.90;2.40;;;;;;;19.52;53.82;100485.78;6098679;28;20037;-64
2022/07/25 02:53:15;;;;;;;4.93;2.57;;;;;;;19.62;53.38;100489.91;6099096;28;20350;-64
2022/07/25 02:56:10;;;;;;;6.60;2.23;;;;;;;19.66;53.52;100494.66;6099236;28;20033;-64
2022/07/25 02:59:05;;;;;;;5.23;2.57;;;;;;;19.63;53.33;100483.47;6098616;28;20021;-65
2022/07/25 03:02:01;;;;;;;5.63;2.13;;;;;;;19.59;53.77;100486.56;6098191;28;20031;-64
2022/07/25 03:04:56;;;;;;;5.93;2.47;;;;;;;19.60;53.77;100482.03;6098538;28;20037;-66
2022/07/25 03:07:51;;;;;;;5.33;2.67;;;;;;;19.55;53.68;100481.84;6098738;28;20298;-65
2022/07/25 03:10:46;;;;;;;3.90;2.40;;;;;;;19.53;53.60;100470.47;6097206;28;20052;-66
2022/07/25 03:13:42;;;;;;;5.27;2.60;;;;;;;19.55;53.73;100479.16;6098439;28;20025;-65
2022/07/25 03:16:37;;;;;;;4.63;2.53;;;;;;;19.48;53.62;100478.34;6097943;28;20028;-65
2022/07/25 03:19:32;;;;;;;9.30;3.90;;;;;;;19.43;54.02;100473.56;6098217;28;20345;-65
2022/07/25 03:22:28;;;;;;;5.80;2.50;;;;;;;19.43;54.03;100476.25;6097793;28;20040;-66
2022/07/25 03:25:23;;;;;;;5.37;2.47;;;;;;;19.41;54.38;100472.13;6098252;28;20025;-66
2022/07/25 03:28:18;;;;;;;5.17;2.53;;;;;;;19.31;54.58;100460.94;6098344;28;20362;-65
2022/07/25 03:31:14;;;;;;;4.95;2.45;;;;;;;19.26;54.88;100468.81;6097660;28;20025;-64
2022/07/25 03:34:09;;;;;;;6.13;2.63;;;;;;;19.19;55.06;100462.59;6097740;28;20035;-65
2022/07/25 03:37:04;;;;;;;5.90;2.63;;;;;;;19.17;55.39;100462.00;6097727;28;20460;-65
2022/07/25 03:39:59;;;;;;;5.43;2.47;;;;;;;19.05;55.67;100444.84;6097718;28;20090;-65
2022/07/25 03:42:55;;;;;;;8.27;2.57;;;;;;;19.09;55.71;100454.13;6097602;28;20021;-64
2022/07/25 03:45:50;;;;;;;5.90;2.60;;;;;;;18.98;55.87;100451.06;6097956;28;20028;-63
2022/07/25 03:48:45;;;;;;;5.83;2.60;;;;;;;19.00;56.02;100448.97;6097977;28;20029;-64
2022/07/25 03:51:41;;;;;;;10.33;2.97;;;;;;;18.99;56.15;100441.97;6096903;28;20119;-63
2022/07/25 03:54:36;;;;;;;10.02;2.70;;;;;;;18.98;56.25;100445.69;6097591;28;20032;-64
2022/07/25 03:57:32;;;;;;;9.23;2.87;;;;;;;18.99;56.49;100452.72;6097438;28;20021;-63
2022/07/25 04:00:27;;;;;;;4.18;2.28;;;;;;;19.00;56.33;100454.34;6096897;28;20516;-63
2022/07/25 04:03:22;;;;;;;6.20;2.33;;;;;;;18.98;56.48;100451.06;6097441;28;20036;-66
2022/07/25 04:06:17;;;;;;;6.10;2.57;;;;;;;19.00;56.45;100442.75;6097846;28;20032;-63
2022/07/25 04:09:14;;;;;;;4.13;2.20;;;;;;;18.98;56.33;100437.63;6097168;28;20029;-63
2022/07/25 04:12:09;;;;;;;5.55;2.60;;;;;;;19.06;55.90;100424.97;6112086;28;20031;-65
2022/07/25 04:15:05;;;;;;;3.37;2.00;;;;;;;19.11;55.79;100415.25;6097410;28;20025;-63
2022/07/25 04:18:00;;;;;;;5.65;2.67;;;;;;;19.21;55.85;100428.28;6096300;28;20035;-63
2022/07/25 04:20:56;;;;;;;5.07;2.30;;;;;;;19.24;55.83;100434.06;6096780;28;20032;-62
2022/07/25 04:23:52;;;;;;;6.03;2.53;;;;;;;19.25;55.64;100424.13;6097156;28;20071;-64
2022/07/25 04:26:47;;;;;;;4.47;2.45;;;;;;;19.42;55.41;100430.75;6096895;28;20272;-64
2022/07/25 04:29:42;;;;;;;5.97;2.27;;;;;;;19.60;54.92;100422.84;6095927;28;20033;-63
2022/07/25 04:32:37;;;;;;;5.13;2.42;;;;;;;19.93;53.70;100423.56;6096037;28;20102;-64
2022/07/25 04:35:33;;;;;;;4.40;2.40;;;;;;;20.27;52.64;100408.09;6096906;28;20441;-64
2022/07/25 04:38:29;;;;;;;4.30;2.45;;;;;;;20.31;52.24;100412.00;6096894;28;20075;-65
2022/07/25 04:41:24;;;;;;;4.70;2.53;;;;;;;20.31;52.68;100412.81;6096532;28;20025;-63
2022/07/25 04:44:19;;;;;;;5.67;2.33;;;;;;;20.50;51.91;100392.19;6096649;28;20471;-64
2022/07/25 04:47:15;;;;;;;4.63;2.63;;;;;;;20.70;51.34;100398.25;6097250;28;20017;-63
2022/07/25 04:50:10;;;;;;;5.00;2.20;;;;;;;20.70;51.63;100400.94;6096204;28;20059;-64
2022/07/25 04:53:06;;;;;;;4.50;2.45;;;;;;;20.69;51.39;100396.59;6096540;28;20025;-64
2022/07/25 04:56:01;;;;;;;4.22;2.45;;;;;;;20.83;51.27;100387.34;6096991;28;20017;-66
2022/07/25 04:58:56;;;;;;;4.22;2.53;;;;;;;21.07;50.45;100386.53;6096652;28;20025;-64
2022/07/25 05:01:52;;;;;;;5.70;2.63;;;;;;;20.79;50.83;100372.66;6096187;28;20037;-64
2022/07/25 05:04:47;;;;;;;5.97;2.67;;;;;;;20.99;50.78;100373.31;6097065;28;20583;-65
2022/07/25 05:07:43;;;;;;;5.67;2.60;;;;;;;20.89;51.09;100375.69;6095963;28;20040;-65
2022/07/25 05:10:38;;;;;;;7.57;2.63;;;;;;;21.10;50.25;100366.41;6096059;28;20040;-65
2022/07/25 05:13:33;;;;;;;6.03;2.53;;;;;;;21.13;50.38;100365.94;6096254;28;20049;-67
2022/07/25 05:16:28;;;;;;;5.77;2.67;;;;;;;21.28;50.13;100356.44;6096823;28;20372;-65
2022/07/25 05:19:24;;;;;;;5.33;2.77;;;;;;;21.55;49.69;100365.06;6096950;28;20029;-66
2022/07/25 05:22:20;;;;;;;8.98;3.17;;;;;;;21.75;48.97;100354.00;6095567;28;20113;-64
2022/07/25 05:25:15;;;;;;;6.30;3.17;;;;;;;21.71;49.25;100356.38;6095486;28;20021;-66
2022/07/25 05:28:10;;;;;;;6.57;3.47;;;;;;;21.96;48.85;100352.75;6094272;28;20040;-64
2022/07/25 05:31:06;;;;;;;8.07;3.40;;;;;;;21.99;49.02;100345.00;6095467;28;20151;-64
2022/07/25 05:34:01;;;;;;;8.10;4.13;;;;;;;22.39;47.98;100339.84;6096018;28;20071;-65
2022/07/25 05:36:57;;;;;;;9.27;4.43;;;;;;;22.35;47.48;100334.06;6095798;28;20040;-65
2022/07/25 05:39:52;;;;;;;11.03;4.80;;;;;;;22.54;47.72;100346.44;6100703;28;20029;-65
2022/07/25 05:42:47;;;;;;;11.23;4.47;;;;;;;22.61;46.92;100330.13;6079197;28;20065;-64
2022/07/25 05:45:43;;;;;;;8.93;3.60;;;;;;;22.65;46.65;100330.50;6044973;28;108496;-66
2022/07/25 05:48:38;;;;;;;8.85;3.88;;;;;;;22.92;46.15;100326.25;6052915;28;20018;-65
2022/07/25 05:51:33;;;;;;;9.77;3.73;;;;;;;23.10;45.59;100318.03;6051926;28;20038;-65
2022/07/25 05:54:28;;;;;;;9.63;3.67;;;;;;;23.59;44.77;100325.56;6051585;28;20030;-65
2022/07/25 05:57:24;;;;;;;12.13;3.57;;;;;;;24.05;43.84;100334.59;6050889;28;20406;-64
2022/07/25 06:00:19;;;;;;;9.30;3.73;;;;;;;23.68;44.50;100315.19;6051640;28;20440;-65
2022/07/25 06:03:14;;;;;;;8.30;3.67;;;;;;;24.56;42.67;100320.88;6052382;28;20030;-65
2022/07/25 06:06:10;;;;;;;14.63;4.60;;;;;;;24.34;42.45;100303.69;6051166;28;20034;-66
2022/07/25 06:09:05;;;;;;;9.87;4.40;;;;;;;24.18;43.22;100309.94;6052252;28;20029;-64
2022/07/25 06:12:00;;;;;;;15.47;5.10;;;;;;;24.39;42.18;100309.19;6050877;28;20135;-65
2022/07/25 06:14:56;;;;;;;16.47;5.43;;;;;;;24.42;42.33;100311.44;6050863;28;20277;-64
2022/07/25 06:17:51;;;;;;;13.85;4.75;;;;;;;24.74;41.71;100306.22;6052015;28;20022;-65
2022/07/25 06:20:47;;;;;;;14.47;5.13;;;;;;;24.51;42.45;100301.81;6051574;28;20036;-65
2022/07/25 06:23:42;;;;;;;12.63;5.00;;;;;;;24.74;41.97;100298.09;6052243;28;20076;-65
2022/07/25 06:26:38;;;;;;;13.83;5.47;;;;;;;24.97;42.04;100297.09;6051911;28;20033;-66
2022/07/25 06:29:34;;;;;;;15.73;5.10;;;;;;;24.84;41.90;100285.50;6051795;28;20041;-65
2022/07/25 06:32:29;;;;;;;12.00;4.73;;;;;;;25.44;41.17;100284.66;6051487;28;20037;-66
2022/07/25 06:35:24;;;;;;;21.73;5.47;;;;;;;25.46;40.60;100279.81;6051346;28;20030;-65
2022/07/25 06:38:20;;;;;;;9.43;4.50;;;;;;;25.79;40.04;100285.09;6051929;28;20053;-65
2022/07/25 06:41:15;;;;;;;14.20;4.60;;;;;;;25.66;40.59;100285.50;6050808;28;20030;-65
2022/07/25 06:44:10;;;;;;;12.75;4.50;;;;;;;26.06;39.97;100274.22;6051113;28;20036;-64
2022/07/25 06:47:11;;;;;;;10.10;4.50;;;;;;;25.97;40.46;100271.16;6049704;28;20038;-63
2022/07/25 06:50:08;;;;;;;9.50;4.43;;;;;;;26.27;40.09;100261.66;6050789;28;20343;-64
2022/07/25 06:53:03;;;;;;;9.25;4.35;;;;;;;26.83;38.96;100257.44;6051604;28;20087;-65
2022/07/25 06:55:59;;;;;;;8.70;3.70;;;;;;;27.27;37.83;100256.00;6050839;28;20030;-66
2022/07/25 06:58:54;;;;;;;9.23;4.03;;;;;;;27.32;38.00;100258.75;6051483;28;20088;-64
2022/07/25 07:01:50;;;;;;;8.40;3.83;;;;;;;28.23;37.18;100243.44;6049736;28;20085;-65
2022/07/25 07:04:45;;;;;;;7.40;3.93;;;;;;;28.46;35.52;100250.22;6051472;28;20030;-65
2022/07/25 07:07:40;;;;;;;6.38;4.30;;;;;;;27.70;37.28;100238.44;6049744;28;20044;-64
2022/07/25 07:10:36;;;;;;;6.17;3.70;;;;;;;28.00;36.78;100249.41;6049100;28;20137;-65
2022/07/25 07:13:31;;;;;;;6.77;4.10;;;;;;;28.00;36.65;100235.75;6049179;28;20042;-64
2022/07/25 07:16:26;;;;;;;7.33;4.20;;;;;;;28.32;35.63;100239.06;6049382;28;20034;-65
2022/07/25 07:19:22;;;;;;;11.10;4.43;;;;;;;28.33;36.16;100235.25;6050296;28;20291;-66
2022/07/25 07:22:17;;;;;;;6.23;3.80;;;;;;;28.35;36.61;100240.41;6050056;28;20091;-65
2022/07/25 07:25:13;;;;;;;8.30;4.27;;;;;;;29.37;34.22;100226.25;6049037;28;20097;-65
2022/07/25 07:28:09;;;;;;;9.15;4.55;;;;;;;29.04;34.61;100226.91;6049354;28;20265;-66
2022/07/25 07:31:04;;;;;;;7.93;4.07;;;;;;;28.55;35.56;100234.13;6048365;28;20045;-64
2022/07/25 07:34:00;;;;;;;6.88;4.57;;;;;;;28.61;35.74;100224.84;6050283;28;20022;-65
2022/07/25 07:36:55;;;;;;;10.10;4.32;;;;;;;28.58;36.03;100219.94;6050248;28;20040;-65
2022/07/25 07:39:50;;;;;;;6.73;4.10;;;;;;;28.70;35.63;100210.38;6050530;28;20080;-65
2022/07/25 07:42:47;;;;;;;7.43;4.37;;;;;;;28.79;35.72;100192.31;6050017;28;20426;-66
2022/07/25 07:45:42;;;;;;;5.93;4.43;;;;;;;29.09;35.13;100202.31;6050252;28;20049;-65
2022/07/25 07:48:38;;;;;;;6.63;4.30;;;;;;;29.33;34.27;100197.00;6050674;28;20497;-65
2022/07/25 07:51:33;;;;;;;8.13;4.23;;;;;;;29.71;33.89;100209.88;6049207;28;20436;-64
2022/07/25 07:57:42;;;;;;;6.00;4.25;;;;;;;29.75;33.79;100193.75;6049980;28;20018;-65
2022/07/25 08:00:38;;;;;;;5.33;3.93;;;;;;;29.89;33.37;100192.03;6049367;28;20034;-65
2022/07/25 08:03:33;;;;;;;7.35;4.70;;;;;;;30.12;34.36;100194.00;6050241;28;20038;-64
2022/07/25 08:06:28;;;;;;;7.40;4.85;;;;;;;30.50;32.72;100190.38;6049576;28;20033;-65
2022/07/25 08:09:24;;;;;;;5.87;5.03;;;;;;;30.65;31.94;100173.78;6049790;28;20112;-67
2022/07/25 08:12:19;;;;;;;8.63;4.90;;;;;;;31.26;32.78;100173.03;6048931;28;20411;-66
2022/07/25 08:15:17;;;;;;;6.80;4.77;;;;;;;31.75;31.57;100176.16;6049268;28;20036;-65
2022/07/25 08:18:12;;;;;;;8.75;5.20;;;;;;;31.61;31.23;100156.06;6049557;28;20022;-66
2022/07/25 08:21:08;;;;;;;6.43;4.90;;;;;;;31.59;30.79;100166.53;6048899;28;20092;-65
2022/07/25 08:24:03;;;;;;;7.45;5.07;;;;;;;31.66;31.04;100152.44;6049106;28;20057;-66
2022/07/25 08:26:58;;;;;;;7.30;4.63;;;;;;;31.40;31.54;100160.22;6048892;28;20038;-65
2022/07/25 08:29:54;;;;;;;7.67;4.47;;;;;;;31.81;31.35;100155.75;6049084;28;20045;-65
2022/07/25 08:32:51;;;;;;;7.67;4.77;;;;;;;32.17;30.45;100152.41;6048514;28;20104;-65
2022/07/25 08:35:48;;;;;;;6.32;5.03;;;;;;;32.00;29.80;100143.91;6049576;28;20026;-66
2022/07/25 08:38:43;;;;;;;7.20;5.07;;;;;;;31.67;30.67;100143.91;6049250;28;20044;-66
2022/07/25 08:41:40;;;;;;;9.27;4.93;;;;;;;31.74;30.69;100158.03;6048738;28;20030;-65
2022/07/25 08:44:38;;;;;;;6.30;4.93;;;;;;;31.68;30.79;100155.69;6049304;28;20026;-64
2022/07/25 08:47:34;;;;;;;7.20;4.80;;;;;;;32.25;30.07;100155.28;6048292;28;20041;-65
2022/07/25 08:50:30;;;;;;;5.80;4.63;;;;;;;32.75;29.52;100141.72;6049980;28;20022;-65
2022/07/25 08:53:26;;;;;;;7.80;4.72;;;;;;;32.97;28.01;100139.81;6049372;28;20038;-65
2022/07/25 08:56:21;;;;;;;7.40;5.18;;;;;;;33.19;28.58;100121.78;6048873;28;20501;-65
2022/07/25 08:59:17;;;;;;;7.53;5.00;;;;;;;33.23;28.40;100136.56;6049298;28;20058;-66
2022/07/25 09:02:13;;;;;;;6.50;4.87;;;;;;;33.44;28.82;100133.00;6048603;28;20273;-64
2022/07/25 09:05:08;;;;;;;8.90;4.68;;;;;;;32.90;29.13;100128.44;6049145;28;20014;-64
2022/07/25 09:08:12;;;;;;;7.03;4.70;;;;;;;33.04;29.32;100113.88;6049133;28;20152;-65
2022/07/25 09:11:07;;;;;;;7.30;4.50;;;;;;;33.34;28.13;100104.94;6050521;28;20616;-66
2022/07/25 09:14:05;;;;;;;6.00;5.13;;;;;;;32.17;29.85;100124.97;6052652;28;20045;-65
2022/07/25 09:17:05;;;;;;;7.40;5.20;;;;;;;32.17;29.74;100108.50;6052608;28;20076;-65
2022/07/25 09:20:00;;;;;;;6.82;4.90;;;;;;;32.18;29.65;100099.16;6052585;28;20449;-66
2022/07/25 09:22:56;;;;;;;9.20;4.75;;;;;;;32.16;30.01;100107.69;6052496;28;20021;-66
2022/07/25 09:25:52;;;;;;;7.32;5.40;;;;;;;32.39;29.60;100106.69;6052796;28;20531;-65
2022/07/25 09:28:50;;;;;;;7.30;5.47;;;;;;;32.56;29.14;100081.38;6052815;28;20037;-66
2022/07/25 09:31:45;;;;;;;8.15;5.30;;;;;;;32.64;29.07;100091.63;6048134;28;20108;-66
2022/07/25 09:34:41;;;;;;;6.47;5.07;;;;;;;32.99;29.18;100088.09;6052360;28;20048;-64
2022/07/25 09:37:37;;;;;;;6.85;4.97;;;;;;;32.98;28.78;100089.25;6052685;28;20033;-65
2022/07/25 09:40:32;;;;;;;8.13;5.00;;;;;;;33.38;28.37;100090.25;6051975;28;20029;-65
2022/07/25 09:43:41;;;;;;;7.67;5.27;;;;;;;33.52;28.10;100091.00;6052157;28;20044;-64
2022/07/25 09:46:37;;;;;;;7.70;4.88;;;;;;;33.60;27.99;100070.22;6051681;28;20065;-65
2022/07/25 09:49:42;;;;;;;6.63;5.03;;;;;;;33.06;28.15;100078.66;6051968;28;20048;-66
2022/07/25 09:52:38;;;;;;;8.48;5.38;;;;;;;32.83;28.78;100075.84;6051245;28;20108;-64
2022/07/25 09:55:33;;;;;;;7.13;4.90;;;;;;;32.80;28.32;100084.72;6050437;28;20367;-66
2022/07/25 09:58:28;;;;;;;8.50;5.13;;;;;;;32.66;29.50;100072.13;6051561;28;20018;-65
2022/07/25 10:01:28;;;;;;;7.80;5.20;;;;;;;33.09;28.71;100067.88;6050711;28;20273;-66
2022/07/25 10:04:27;;;;;;;;;;;;;;;33.41;28.55;100072.31;6048987;28;20276;-65
2022/07/25 10:07:22;;;;;;;7.53;5.60;;;;;;;33.36;28.27;100053.19;6066302;28;19913;-65
2022/07/25 10:10:29;;;;;;;6.90;5.50;;;;;;;33.16;28.95;100064.69;6049214;28;20045;-65
2022/07/25 10:13:31;;;;;;;11.82;5.60;;;;;;;32.77;29.21;100052.38;6052011;28;20040;-67
2022/07/25 10:16:26;;;;;;;11.00;6.03;;;;;;;32.67;29.99;100052.56;6051491;28;20436;-65
2022/07/25 10:19:46;;;;;;;8.93;5.90;;;;;;;33.22;28.89;100060.69;6051729;28;20022;-65
2022/07/25 10:22:43;;;;;;;9.02;5.80;;;;;;;33.69;28.40;100053.75;6045196;28;20029;-65
2022/07/25 10:25:40;;;;;;;7.20;5.18;;;;;;;33.34;28.41;100048.00;6065521;28;20029;-66
2022/07/25 10:28:44;;;;;;;11.77;5.65;;;;;;;33.31;29.28;100045.06;6050122;28;20379;-65
2022/07/25 10:31:42;;;;;;;7.32;5.32;;;;;;;33.40;28.65;100040.44;6065570;28;20033;-66
2022/07/25 10:34:38;;;;;;;10.27;5.13;;;;;;;33.52;28.65;100043.44;6051066;28;20084;-64
2022/07/25 10:37:35;;;;;;;8.25;5.25;;;;;;;33.61;28.28;100040.75;6049974;28;20065;-66
2022/07/25 10:40:37;;;;;;;8.85;5.63;;;;;;;33.30;29.06;100032.44;6050328;28;20026;-66
2022/07/25 10:43:36;;;;;;;8.05;5.50;;;;;;;32.84;29.22;100030.75;6050553;28;20482;-66
2022/07/25 10:46:33;;;;;;;7.20;5.43;;;;;;;32.96;29.23;100028.28;6050042;28;20099;-65
2022/07/25 10:49:34;;;;;;;11.15;5.35;;;;;;;33.27;29.06;100027.56;6050260;28;20041;-65
2022/07/25 10:52:30;;;;;;;6.90;5.40;;;;;;;33.80;28.93;100031.16;6049872;28;20318;-66
2022/07/25 10:55:27;;;;;;;8.13;5.30;;;;;;;34.16;28.10;100020.00;6049969;28;20038;-66
2022/07/25 10:58:23;;;;;;;7.03;5.50;;;;;;;34.67;27.23;100020.16;6050252;28;20048;-66
2022/07/25 11:01:27;;;;;;;7.60;5.18;;;;;;;35.12;26.07;100023.41;6049027;28;20030;-66
2022/07/25 11:04:22;;;;;;;5.78;4.78;;;;;;;34.75;26.13;100002.00;6049670;28;20033;-65
2022/07/25 11:07:18;;;;;;;6.80;4.63;;;;;;;34.75;25.50;100009.44;6050723;28;20088;-66
2022/07/25 11:10:13;;;;;;;8.00;4.85;;;;;;;34.76;26.16;100009.16;6049381;28;20033;-65
2022/07/25 11:13:13;;;;;;;8.27;4.83;;;;;;;35.16;27.26;99994.06;6049880;28;20038;-66
2022/07/25 11:16:09;;;;;;;5.72;4.38;;;;;;;35.33;25.02;99997.94;6050121;28;20175;-66
2022/07/25 11:19:24;;;;;;;7.97;5.07;;;;;;;35.23;26.02;99999.88;6049695;28;20022;-65
2022/07/25 11:22:19;;;;;;;6.60;5.05;;;;;;;35.09;26.14;99990.97;6049574;28;20087;-66
2022/07/25 11:25:14;;;;;;;7.23;5.67;;;;;;;35.58;25.67;99984.09;6050153;28;20038;-66
2022/07/25 11:28:10;;;;;;;7.30;4.77;;;;;;;36.02;25.38;99977.28;6050496;28;20034;-67
2022/07/25 11:31:06;;;;;;;5.82;5.00;;;;;;;35.82;23.93;99976.03;6048551;28;20160;-65
2022/07/25 11:34:01;;;;;;;5.55;4.43;;;;;;;35.69;24.72;99981.78;6049127;28;20034;-67
2022/07/25 11:36:58;;;;;;;6.20;4.93;;;;;;;35.51;25.29;99969.16;6049422;28;20420;-66
2022/07/25 11:39:53;;;;;;;6.70;5.13;;;;;;;35.17;25.29;99954.31;6048412;28;20616;-66
2022/07/25 11:42:53;;;;;;;7.05;5.30;;;;;;;35.30;25.06;99947.00;6047837;28;20029;-65
2022/07/25 11:46:16;;;;;;;6.97;5.05;;;;;;;35.41;25.65;99952.97;6050001;28;20393;-66
2022/07/25 11:49:13;;;;;;;8.32;5.20;;;;;;;35.15;25.36;99940.03;6047118;28;20557;-66
2022/07/25 11:52:23;;;;;;;9.07;5.13;;;;;;;35.16;25.89;99946.38;6048830;28;20124;-66
2022/07/25 11:55:18;;;;;;;8.20;5.32;;;;;;;34.71;26.63;99951.41;6048807;28;20034;-66
2022/07/25 11:58:13;;;;;;;7.20;4.87;;;;;;;34.48;26.67;99947.16;6048177;28;20037;-65
2022/07/25 12:01:14;;;;;;;9.30;5.22;;;;;;;34.58;26.38;99955.13;6063366;28;20053;-66
2022/07/25 12:04:18;;;;;;;6.47;4.75;;;;;;;34.92;26.42;99946.88;6048265;28;20109;-66
2022/07/25 12:07:14;;;;;;;6.70;4.82;;;;;;;35.46;25.72;99938.97;6048325;28;20038;-66
2022/07/25 12:10:15;;;;;;;6.57;4.60;;;;;;;35.77;25.07;99947.81;6047259;28;20112;-65
2022/07/25 12:13:23;;;;;;;5.97;4.50;;;;;;;35.21;26.01;99937.91;6049433;28;20041;-66
2022/07/25 12:16:18;;;;;;;5.78;4.60;;;;;;;34.81;26.04;99933.75;6049163;28;20113;-66
2022/07/25 12:19:18;;;;;;;6.88;4.80;;;;;;;35.12;26.18;99948.97;6048557;28;20033;-66
2022/07/25 12:22:14;;;;;;;7.90;4.50;;;;;;;35.12;25.92;99943.44;6047617;28;20038;-66
2022/07/25 12:25:10;;;;;;;7.17;4.97;;;;;;;34.93;27.01;99940.22;6048461;28;20048;-66
2022/07/25 12:28:07;;;;;;;6.22;5.10;;;;;;;35.00;26.54;99932.28;6049704;28;20025;-66
2022/07/25 12:31:03;;;;;;;8.25;5.38;;;;;;;35.63;26.74;99938.97;6048628;28;20028;-66
2022/07/25 12:33:58;;;;;;;6.47;5.30;;;;;;;35.38;26.04;99937.06;6050037;28;20474;-66
2022/07/25 12:36:55;;;;;;;10.27;5.40;;;;;;;35.48;26.25;99931.19;6049608;28;20030;-65
2022/07/25 12:39:50;;;;;;;6.18;5.18;;;;;;;35.45;25.70;99931.84;6049001;28;20026;-66
2022/07/25 12:42:46;;;;;;;6.65;5.85;;;;;;;35.19;25.98;99935.50;6048049;28;20035;-66
2022/07/25 12:45:41;;;;;;;6.40;5.25;;;;;;;35.15;26.68;99929.00;6051101;28;20033;-66
2022/07/25 12:48:36;;;;;;;6.77;5.03;;;;;;;35.15;25.90;99922.69;6068640;28;20034;-66
2022/07/25 12:51:31;;;;;;;7.03;4.93;;;;;;;35.26;26.96;99935.81;6052836;28;20281;-66
2022/07/25 12:54:27;;;;;;;6.70;4.40;;;;;;;34.88;26.31;99929.34;6053464;28;20080;-66
2022/07/25 12:57:23;;;;;;;7.47;5.33;;;;;;;34.47;26.60;99934.50;6053169;28;20037;-66
2022/07/25 13:00:20;;;;;;;9.90;5.35;;;;;;;34.24;27.12;99930.28;6052947;28;20042;-66
2022/07/25 13:03:16;;;;;;;8.18;5.45;;;;;;;33.79;27.82;99926.91;6053592;28;20053;-66
2022/07/25 13:06:12;;;;;;;8.15;5.28;;;;;;;33.60;28.45;99916.16;6053050;28;20025;-65
2022/07/25 13:09:07;;;;;;;7.80;5.67;;;;;;;33.11;28.89;99924.59;6052312;28;20029;-65
2022/07/25 13:12:02;;;;;;;6.57;5.30;;;;;;;32.94;29.23;99936.28;6052675;28;20264;-66
2022/07/25 13:14:58;;;;;;;6.50;5.63;;;;;;;32.75;30.15;99928.22;6052683;28;20041;-67
2022/07/25 13:17:53;;;;;;;10.07;5.57;;;;;;;32.63;29.65;99933.47;6052942;28;20029;-66
2022/07/25 13:20:49;;;;;;;8.43;4.87;;;;;;;32.43;29.64;99936.63;6051648;28;20080;-66
2022/07/25 13:23:44;;;;;;;6.90;5.20;;;;;;;32.34;30.28;99935.75;6052899;28;20033;-66
2022/07/25 13:26:39;;;;;;;7.03;4.83;;;;;;;32.14;30.92;99919.72;6052687;28;20471;-66
2022/07/25 13:29:35;;;;;;;6.87;4.70;;;;;;;31.77;33.95;99923.50;6052426;28;20072;-66
2022/07/25 13:32:30;;;;;;;10.38;4.95;;;;;;;31.26;32.83;99929.09;6052228;28;20359;-66
2022/07/25 13:35:25;;;;;;;6.00;4.80;;;;;;;30.92;35.62;99932.16;6052177;28;20045;-67
2022/07/25 13:38:21;;;;;;;7.68;4.78;;;;;;;30.41;36.21;99943.03;6052901;28;20469;-67
2022/07/25 13:41:16;;;;;;;7.43;5.00;;;;;;;30.36;35.25;99945.00;6051371;28;20028;-66
2022/07/25 13:44:14;;;;;;;7.77;5.37;;;;;;;30.57;34.87;99958.16;6051691;28;20045;-65